createdAt,value
2019-01-17T00:00:03.098Z,9.74
2019-01-17T00:01:03.274Z,9.55
2019-01-17T00:02:02.913Z,10.13
2019-01-17T00:03:02.959Z,9.16
2019-01-17T00:04:03.556Z,8.75
2019-01-17T00:05:02.721Z,11.34
2019-01-17T00:06:02.630Z,9.25
2019-01-17T00:07:03.077Z,10.18
2019-01-17T00:08:03.631Z,9.75
2019-01-17T00:09:02.845Z,9.8
2019-01-17T00:10:03.464Z,8.98
2019-01-17T00:11:03.119Z,9.06
2019-01-17T00:12:03.220Z,9.14
2019-01-17T00:13:03.175Z,9.47
2019-01-17T00:14:02.797Z,9.6
2019-01-17T00:15:02.833Z,9.46
2019-01-17T00:16:02.667Z,9.49
2019-01-17T00:17:03.013Z,11.47
2019-01-17T00:18:03.217Z,12.19
2019-01-17T00:19:02.620Z,12.6
2019-01-17T00:20:03.456Z,13.33
2019-01-17T00:21:02.765Z,12.02
2019-01-17T00:22:03.471Z,12.42
2019-01-17T00:23:03.257Z,11.41
2019-01-17T00:24:02.979Z,11
2019-01-17T00:25:03.616Z,10.69
2019-01-17T00:26:03.674Z,11.98
2019-01-17T00:27:02.792Z,12.23
2019-01-17T00:28:02.723Z,11.72
2019-01-17T00:29:02.984Z,10.86
2019-01-17T00:30:02.871Z,9.99
2019-01-17T00:31:03.133Z,10.39
2019-01-17T00:32:03.200Z,10.23
2019-01-17T00:33:02.824Z,9.48
2019-01-17T00:34:02.569Z,10.23
2019-01-17T00:35:02.831Z,10.11
2019-01-17T00:36:02.807Z,10.61
2019-01-17T00:37:03.396Z,11.1
2019-01-17T00:38:03.528Z,10.7
2019-01-17T00:39:03.479Z,11.22
2019-01-17T00:40:03.025Z,11.22
2019-01-17T00:41:03.026Z,10.3
2019-01-17T00:42:03.714Z,10.3
2019-01-17T00:43:03.292Z,10.33
2019-01-17T00:44:03.557Z,11.42
2019-01-17T00:45:03.151Z,9.71
2019-01-17T00:46:03.466Z,9.03
2019-01-17T00:47:02.874Z,10.21
2019-01-17T00:48:03.087Z,9.69
2019-01-17T00:49:02.722Z,9.24
2019-01-17T00:50:03.608Z,10.22
2019-01-17T00:51:02.943Z,9.6
2019-01-17T00:52:02.930Z,11.21
2019-01-17T00:53:03.435Z,9.62
2019-01-17T00:54:09.246Z,10.55
2019-01-17T00:55:03.177Z,10.59
2019-01-17T00:56:03.702Z,9.97
2019-01-17T00:57:03.341Z,9.5
2019-01-17T00:58:03.622Z,9.79
2019-01-17T00:59:02.954Z,9.09
2019-01-17T01:00:02.651Z,9.95
2019-01-17T01:01:03.496Z,9.14
2019-01-17T01:02:04.059Z,9.85
2019-01-17T01:03:03.470Z,9.78
2019-01-17T01:04:03.784Z,9.22
2019-01-17T01:05:03.430Z,9.09
2019-01-17T01:06:02.679Z,9.14
2019-01-17T01:07:02.853Z,8.49
2019-01-17T01:08:03.170Z,9.95
2019-01-17T01:09:03.333Z,10.12
2019-01-17T01:10:03.411Z,10.07
2019-01-17T01:11:02.981Z,9.69
2019-01-17T01:12:03.025Z,9.01
2019-01-17T01:13:03.057Z,9.68
2019-01-17T01:14:03.076Z,8.83
2019-01-17T01:15:02.898Z,10.19
2019-01-17T01:16:03.552Z,9.75
2019-01-17T01:17:03.259Z,9.44
2019-01-17T01:18:03.154Z,9.45
2019-01-17T01:19:03.441Z,9.24
2019-01-17T01:20:02.971Z,9.17
2019-01-17T01:21:03.171Z,9.87
2019-01-17T01:22:03.654Z,10.39
2019-01-17T01:23:02.702Z,9.28
2019-01-17T01:24:02.983Z,10.18
2019-01-17T01:25:03.602Z,9.19
2019-01-17T01:26:03.147Z,9.34
2019-01-17T01:27:02.734Z,10.11
2019-01-17T01:28:02.862Z,9.47
2019-01-17T01:29:02.807Z,9.47
2019-01-17T01:30:02.765Z,10.09
2019-01-17T01:31:03.132Z,10.12
2019-01-17T01:32:03.341Z,8.83
2019-01-17T01:33:02.730Z,10.04
2019-01-17T01:34:02.918Z,9.09
2019-01-17T01:35:03.583Z,10.59
2019-01-17T01:36:03.137Z,10.11
2019-01-17T01:37:03.543Z,9.63
2019-01-17T01:38:03.362Z,10.14
2019-01-17T01:39:03.054Z,9.42
2019-01-17T01:40:02.901Z,9.1
2019-01-17T01:41:03.232Z,9.46
2019-01-17T01:42:03.431Z,9.69
2019-01-17T01:43:02.892Z,8.89
2019-01-17T01:44:02.921Z,10.44
2019-01-17T01:45:02.936Z,8.47
2019-01-17T01:46:03.273Z,9.56
2019-01-17T01:47:03.475Z,9.44
2019-01-17T01:48:02.687Z,10.09
2019-01-17T01:49:03.123Z,9.11
2019-01-17T01:50:03.444Z,9.45
2019-01-17T01:51:03.152Z,9.56
2019-01-17T01:52:03.591Z,9.22
2019-01-17T01:53:03.527Z,10.01
2019-01-17T01:54:03.606Z,8.81
2019-01-17T01:55:02.778Z,10.7
2019-01-17T01:56:03.376Z,10.28
2019-01-17T01:57:03.142Z,9.56
2019-01-17T01:58:03.213Z,10.79
2019-01-17T01:59:03.444Z,11.02
2019-01-17T02:00:03.571Z,10.18
2019-01-17T02:01:02.842Z,10.9
2019-01-17T02:02:02.984Z,9.85
2019-01-17T02:03:02.806Z,9.43
2019-01-17T02:04:03.582Z,8.95
2019-01-17T02:05:03.274Z,10.24
2019-01-17T02:06:03.272Z,9.39
2019-01-17T02:07:02.963Z,9.06
2019-01-17T02:08:03.565Z,7.48
2019-01-17T02:09:03.627Z,7.37
2019-01-17T02:10:02.823Z,5.91
2019-01-17T02:11:03.019Z,6.56
2019-01-17T02:12:02.575Z,4.72
2019-01-17T02:13:03.024Z,3.94
2019-01-17T02:14:03.465Z,4.97
2019-01-17T02:15:03.071Z,3.99
2019-01-17T02:16:03.161Z,3.45
2019-01-17T02:17:03.068Z,3.88
2019-01-17T02:18:03.250Z,4.17
2019-01-17T02:19:03.527Z,4.17
2019-01-17T02:20:03.556Z,4.21
2019-01-17T02:21:03.293Z,3.09
2019-01-17T02:22:03.478Z,3.09
2019-01-17T02:23:02.744Z,3.38
2019-01-17T02:24:02.910Z,3.25
2019-01-17T02:25:03.599Z,4.21
2019-01-17T02:26:03.334Z,3.55
2019-01-17T02:27:03.641Z,3.03
2019-01-17T02:28:02.663Z,3.58
2019-01-17T02:29:03.349Z,3.31
2019-01-17T02:30:02.909Z,3.43
2019-01-17T02:31:03.179Z,3.16
2019-01-17T02:32:03.144Z,3.18
2019-01-17T02:33:03.022Z,3.43
2019-01-17T02:34:02.942Z,3.67
2019-01-17T02:35:03.028Z,3.52
2019-01-17T02:36:03.686Z,4.05
2019-01-17T02:37:02.725Z,3.59
2019-01-17T02:38:02.949Z,4.04
2019-01-17T02:39:03.192Z,4.01
2019-01-17T02:40:02.932Z,3.11
2019-01-17T02:41:03.261Z,3.52
2019-01-17T02:42:03.301Z,3.49
2019-01-17T02:43:03.412Z,3.77
2019-01-17T02:44:03.670Z,3.56
2019-01-17T02:45:03.175Z,3.1
2019-01-17T02:46:03.544Z,3.92
2019-01-17T02:47:02.824Z,3.45
2019-01-17T02:48:03.241Z,3.3
2019-01-17T02:49:03.584Z,3.34
2019-01-17T02:50:03.060Z,3.58
2019-01-17T02:51:03.619Z,3.84
2019-01-17T02:52:02.661Z,3.47
2019-01-17T02:53:03.459Z,3.4
2019-01-17T02:54:03.382Z,3.3
2019-01-17T02:55:03.659Z,3.75
2019-01-17T02:56:03.217Z,3.39
2019-01-17T02:57:03.387Z,3.72
2019-01-17T02:58:03.171Z,3.48
2019-01-17T02:59:03.239Z,3.71
2019-01-17T03:00:02.920Z,3.36
2019-01-17T03:01:03.120Z,3.47
2019-01-17T03:02:03.409Z,3.27
2019-01-17T03:03:03.123Z,2.91
2019-01-17T03:04:03.022Z,4.17
2019-01-17T03:05:03.325Z,3.91
2019-01-17T03:06:02.707Z,3.36
2019-01-17T03:07:03.556Z,3.49
2019-01-17T03:08:03.574Z,3.39
2019-01-17T03:09:03.683Z,3.36
2019-01-17T03:10:03.235Z,3.36
2019-01-17T03:11:02.716Z,2.89
2019-01-17T03:12:03.167Z,3.24
2019-01-17T03:13:03.602Z,3.29
2019-01-17T03:14:02.967Z,3.24
2019-01-17T03:15:03.298Z,3.64
2019-01-17T03:16:03.356Z,3.34
2019-01-17T03:17:03.068Z,3.44
2019-01-17T03:18:03.479Z,4.29
2019-01-17T03:19:03.346Z,3.89
2019-01-17T03:20:03.594Z,3.18
2019-01-17T03:21:03.072Z,2.95
2019-01-17T03:22:03.652Z,3.04
2019-01-17T03:23:03.504Z,3.36
2019-01-17T03:24:03.481Z,3.27
2019-01-17T03:25:03.386Z,2.95
2019-01-17T03:26:03.095Z,3.21
2019-01-17T03:27:02.782Z,3.3
2019-01-17T03:28:03.157Z,3.52
2019-01-17T03:29:02.933Z,3.07
2019-01-17T03:30:03.352Z,3.32
2019-01-17T03:31:03.565Z,2.92
2019-01-17T03:32:03.202Z,2.71
2019-01-17T03:33:02.754Z,3.02
2019-01-17T03:34:03.770Z,3.07
2019-01-17T03:35:03.746Z,3.78
2019-01-17T03:36:03.685Z,3.46
2019-01-17T03:37:03.184Z,3.32
2019-01-17T03:38:03.361Z,3.55
2019-01-17T03:39:03.528Z,3.63
2019-01-17T03:40:03.182Z,3.25
2019-01-17T03:41:03.199Z,3.19
2019-01-17T03:42:03.566Z,3.16
2019-01-17T03:43:03.348Z,3.67
2019-01-17T03:44:03.543Z,3.23
2019-01-17T03:45:03.519Z,3.36
2019-01-17T03:46:02.799Z,3.41
2019-01-17T03:47:03.494Z,3.28
2019-01-17T03:48:03.360Z,2.95
2019-01-17T03:49:03.327Z,3.07
2019-01-17T03:50:03.609Z,3.58
2019-01-17T03:51:03.664Z,4.72
2019-01-17T03:52:03.123Z,5.05
2019-01-17T03:53:03.492Z,6.13
2019-01-17T03:54:03.607Z,6.87
2019-01-17T03:55:03.322Z,6.56
2019-01-17T03:56:03.068Z,9.13
2019-01-17T03:57:02.865Z,4.99
2019-01-17T03:58:03.760Z,8.18
2019-01-17T03:59:03.310Z,8.18
2019-01-17T04:00:03.500Z,7.15
2019-01-17T04:01:02.840Z,5.14
2019-01-17T04:02:03.435Z,5.14
2019-01-17T04:03:02.735Z,3.59
2019-01-17T04:04:03.439Z,3.79
2019-01-17T04:05:02.841Z,4.13
2019-01-17T04:06:03.260Z,3.67
2019-01-17T04:07:03.125Z,3.45
2019-01-17T04:08:03.426Z,4.19
2019-01-17T04:09:02.934Z,3.82
2019-01-17T04:10:03.360Z,3.61
2019-01-17T04:11:03.368Z,4.28
2019-01-17T04:12:03.619Z,4.81
2019-01-17T04:13:03.446Z,4.45
2019-01-17T04:14:02.740Z,4.13
2019-01-17T04:15:03.473Z,4.1
2019-01-17T04:16:02.863Z,4.62
2019-01-17T04:17:03.285Z,4.76
2019-01-17T04:18:02.965Z,5.57
2019-01-17T04:19:03.494Z,14.01
2019-01-17T04:20:03.603Z,12.74
2019-01-17T04:21:03.132Z,8
2019-01-17T04:22:03.576Z,6.59
2019-01-17T04:23:03.114Z,5.39
2019-01-17T04:24:03.164Z,4.98
2019-01-17T04:25:02.887Z,4.66
2019-01-17T04:26:03.561Z,4.09
2019-01-17T04:27:02.676Z,3.91
2019-01-17T04:28:03.437Z,3.81
2019-01-17T04:29:02.843Z,3.6
2019-01-17T04:30:03.339Z,3.56
2019-01-17T04:31:02.785Z,3.25
2019-01-17T04:32:02.904Z,3.46
2019-01-17T04:33:02.937Z,3.84
2019-01-17T04:34:03.674Z,3.56
2019-01-17T04:35:02.837Z,3.97
2019-01-17T04:36:02.766Z,3.55
2019-01-17T04:37:02.676Z,3.65
2019-01-17T04:38:03.602Z,4.13
2019-01-17T04:39:02.746Z,3.63
2019-01-17T04:40:03.395Z,3.59
2019-01-17T04:41:03.421Z,3.98
2019-01-17T04:42:03.218Z,4.4
2019-01-17T04:43:02.716Z,4.28
2019-01-17T04:44:03.304Z,4.05
2019-01-17T04:45:03.332Z,4.09
2019-01-17T04:46:03.643Z,4.49
2019-01-17T04:47:02.692Z,4.32
2019-01-17T04:48:02.753Z,4.15
2019-01-17T04:49:03.522Z,4.84
2019-01-17T04:50:02.885Z,4.84
2019-01-17T04:51:02.730Z,4.36
2019-01-17T04:52:03.260Z,4.05
2019-01-17T04:53:03.225Z,4.99
2019-01-17T04:54:03.190Z,4.88
2019-01-17T04:55:05.742Z,4.08
2019-01-17T04:56:02.607Z,4.36
2019-01-17T04:57:03.592Z,4.18
2019-01-17T04:58:03.325Z,4.81
2019-01-17T04:59:02.937Z,4.24
2019-01-17T05:00:03.396Z,4.26
2019-01-17T05:01:03.178Z,3.94
2019-01-17T05:02:03.570Z,4.73
2019-01-17T05:03:03.419Z,4.23
2019-01-17T05:04:03.184Z,3.49
2019-01-17T05:05:03.166Z,4
2019-01-17T05:06:03.683Z,3.77
2019-01-17T05:07:02.632Z,3.59
2019-01-17T05:08:03.169Z,4.44
2019-01-17T05:09:03.734Z,4.15
2019-01-17T05:10:03.614Z,3.44
2019-01-17T05:11:03.226Z,3.17
2019-01-17T05:12:03.196Z,2.95
2019-01-17T05:13:02.643Z,3.4
2019-01-17T05:14:03.483Z,3.55
2019-01-17T05:15:03.474Z,3.46
2019-01-17T05:16:03.191Z,4.39
2019-01-17T05:17:03.349Z,5.8
2019-01-17T05:18:02.881Z,7.87
2019-01-17T05:19:03.458Z,31.74
2019-01-17T05:20:03.605Z,20.14
2019-01-17T05:21:02.950Z,18.79
2019-01-17T05:22:02.870Z,13.79
2019-01-17T05:23:02.900Z,11.04
2019-01-17T05:24:03.595Z,22.52
2019-01-17T05:25:03.006Z,14.98
2019-01-17T05:26:03.535Z,8.99
2019-01-17T05:27:03.615Z,10.13
2019-01-17T05:28:02.882Z,5.8
2019-01-17T05:29:02.890Z,4.83
2019-01-17T05:30:03.315Z,4.65
2019-01-17T05:31:03.002Z,4.82
2019-01-17T05:32:03.152Z,4.44
2019-01-17T05:33:03.279Z,4.88
2019-01-17T05:34:03.393Z,4.16
2019-01-17T05:35:03.549Z,4.75
2019-01-17T05:36:02.827Z,4.25
2019-01-17T05:37:03.176Z,4.25
2019-01-17T05:38:02.991Z,5.21
2019-01-17T05:39:02.971Z,5.21
2019-01-17T05:40:03.443Z,7.04
2019-01-17T05:41:03.151Z,7.02
2019-01-17T05:42:02.891Z,7.02
2019-01-17T05:43:03.173Z,6.04
2019-01-17T05:44:03.503Z,5.89
2019-01-17T05:45:03.181Z,5.54
2019-01-17T05:46:03.096Z,5.09
2019-01-17T05:47:03.033Z,5.1
2019-01-17T05:48:03.477Z,4.52
2019-01-17T05:49:03.092Z,4.4
2019-01-17T05:50:03.412Z,4.48
2019-01-17T05:51:02.966Z,4.37
2019-01-17T05:52:03.299Z,4.01
2019-01-17T05:53:03.570Z,4.25
2019-01-17T05:54:03.005Z,4.77
2019-01-17T05:55:02.810Z,3.74
2019-01-17T05:56:02.865Z,4.35
2019-01-17T05:57:03.675Z,4.17
2019-01-17T05:58:03.229Z,3.62
2019-01-17T05:59:02.829Z,4.86
2019-01-17T06:00:03.461Z,4.65
2019-01-17T06:01:03.104Z,4.92
2019-01-17T06:02:03.223Z,4.22
2019-01-17T06:03:02.827Z,4.58
2019-01-17T06:04:03.015Z,4.98
2019-01-17T06:05:03.280Z,4.58
2019-01-17T06:06:03.184Z,5.15
2019-01-17T06:07:03.072Z,4.79
2019-01-17T06:08:02.975Z,5.4
2019-01-17T06:09:02.887Z,5.56
2019-01-17T06:10:02.896Z,7.36
2019-01-17T06:11:02.777Z,7.45
2019-01-17T06:12:03.616Z,6.35
2019-01-17T06:13:03.502Z,5.4
2019-01-17T06:14:03.480Z,5.34
2019-01-17T06:15:03.036Z,5.51
2019-01-17T06:16:03.453Z,5.94
2019-01-17T06:17:02.871Z,5.31
2019-01-17T06:18:02.837Z,6.5
2019-01-17T06:19:02.786Z,5.68
2019-01-17T06:20:03.254Z,5.71
2019-01-17T06:21:03.358Z,6.31
2019-01-17T06:22:02.677Z,5.94
2019-01-17T06:23:03.087Z,5.82
2019-01-17T06:24:03.039Z,5.99
2019-01-17T06:25:02.935Z,5.68
2019-01-17T06:26:02.828Z,5.6
2019-01-17T06:27:02.664Z,5.57
2019-01-17T06:28:02.921Z,5.57
2019-01-17T06:29:02.669Z,5.58
2019-01-17T06:30:03.597Z,6.91
2019-01-17T06:31:03.019Z,6.91
2019-01-17T06:32:03.580Z,7.54
2019-01-17T06:33:03.165Z,6.79
2019-01-17T06:34:02.822Z,6.83
2019-01-17T06:35:02.907Z,7.15
2019-01-17T06:36:03.159Z,8.16
2019-01-17T06:37:03.692Z,6.69
2019-01-17T06:38:03.201Z,6.53
2019-01-17T06:39:02.945Z,7.13
2019-01-17T06:40:03.623Z,7
2019-01-17T06:41:02.539Z,6.55
2019-01-17T06:42:02.647Z,7.66
2019-01-17T06:43:02.870Z,6.35
2019-01-17T06:44:02.622Z,6.13
2019-01-17T06:45:03.128Z,6.31
2019-01-17T06:46:02.910Z,6.22
2019-01-17T06:47:03.434Z,6.59
2019-01-17T06:48:02.740Z,7.82
2019-01-17T06:49:03.411Z,9.58
2019-01-17T06:50:03.548Z,8.16
2019-01-17T06:51:03.021Z,9.21
2019-01-17T06:52:03.695Z,8.33
2019-01-17T06:53:03.207Z,8.26
2019-01-17T06:54:03.056Z,7.6
2019-01-17T06:55:03.159Z,7.29
2019-01-17T06:56:03.353Z,7.87
2019-01-17T06:57:02.707Z,7.76
2019-01-17T06:58:03.333Z,7.09
2019-01-17T06:59:03.059Z,7.21
2019-01-17T07:00:03.561Z,6.62
2019-01-17T07:01:03.045Z,6.65
2019-01-17T07:02:03.545Z,7.51
2019-01-17T07:03:03.493Z,6.61
2019-01-17T07:04:03.142Z,5.34
2019-01-17T07:05:03.229Z,6.14
2019-01-17T07:06:03.423Z,6.31
2019-01-17T07:07:03.444Z,6.14
2019-01-17T07:08:02.637Z,6.28
2019-01-17T07:09:03.150Z,6.74
2019-01-17T07:10:02.853Z,6.58
2019-01-17T07:11:03.482Z,5.77
2019-01-17T07:12:02.518Z,5.81
2019-01-17T07:13:02.574Z,7.06
2019-01-17T07:14:02.651Z,8.48
2019-01-17T07:15:03.306Z,7.2
2019-01-17T07:16:03.431Z,7.3
2019-01-17T07:17:02.917Z,7.3
2019-01-17T07:18:02.771Z,6.29
2019-01-17T07:19:03.126Z,6.29
2019-01-17T07:20:03.543Z,6.42
2019-01-17T07:21:03.530Z,6.44
2019-01-17T07:22:03.343Z,6.44
2019-01-17T07:23:02.803Z,6.45
2019-01-17T07:24:02.855Z,5.88
2019-01-17T07:25:03.272Z,6.06
2019-01-17T07:26:02.809Z,6.37
2019-01-17T07:27:03.647Z,7.95
2019-01-17T07:28:03.068Z,8.01
2019-01-17T07:29:03.761Z,7.93
2019-01-17T07:30:03.568Z,6.44
2019-01-17T07:31:03.577Z,8.15
2019-01-17T07:32:03.614Z,7.45
2019-01-17T07:33:02.786Z,8.02
2019-01-17T07:34:03.430Z,8.13
2019-01-17T07:35:03.237Z,7.53
2019-01-17T07:36:03.497Z,7.58
2019-01-17T07:37:03.149Z,7.34
2019-01-17T07:38:02.798Z,6.99
2019-01-17T07:39:03.453Z,7.11
2019-01-17T07:40:03.337Z,6.29
2019-01-17T07:41:03.850Z,6.24
2019-01-17T07:42:03.240Z,6.74
2019-01-17T07:43:03.297Z,6.85
2019-01-17T07:44:03.272Z,6.46
2019-01-17T07:45:03.097Z,6.25
2019-01-17T07:46:03.728Z,5.82
2019-01-17T07:47:03.260Z,6.71
2019-01-17T07:48:03.608Z,6.3
2019-01-17T07:49:02.692Z,7.18
2019-01-17T07:50:03.313Z,6.25
2019-01-17T07:51:03.196Z,6.52
2019-01-17T07:52:03.683Z,5.77
2019-01-17T07:53:03.134Z,5.68
2019-01-17T07:54:02.767Z,6.11
2019-01-17T07:55:02.769Z,6.41
2019-01-17T07:56:02.798Z,7.02
2019-01-17T07:57:02.989Z,7.12
2019-01-17T07:58:02.824Z,7.95
2019-01-17T07:59:03.427Z,8.21
2019-01-17T08:00:03.417Z,7.11
2019-01-17T08:01:03.434Z,7
2019-01-17T08:02:03.471Z,7.7
2019-01-17T08:03:03.755Z,6.04
2019-01-17T08:04:02.857Z,6.65
2019-01-17T08:05:02.812Z,6.88
2019-01-17T08:06:02.989Z,7.78
2019-01-17T08:07:03.319Z,7.59
2019-01-17T08:08:03.239Z,7.59
2019-01-17T08:09:03.597Z,7.62
2019-01-17T08:10:03.307Z,6.25
2019-01-17T08:11:03.107Z,6.25
2019-01-17T08:12:05.274Z,6.49
2019-01-17T08:13:03.448Z,8.12
2019-01-17T08:14:02.996Z,6.34
2019-01-17T08:15:03.257Z,6.65
2019-01-17T08:16:02.969Z,7.09
2019-01-17T08:17:03.237Z,6.27
2019-01-17T08:18:02.708Z,7.12
2019-01-17T08:19:03.754Z,6.59
2019-01-17T08:20:02.995Z,7.32
2019-01-17T08:21:02.799Z,6.96
2019-01-17T08:22:03.153Z,6.52
2019-01-17T08:23:02.596Z,7.08
2019-01-17T08:24:02.970Z,7.12
2019-01-17T08:25:03.213Z,7.32
2019-01-17T08:26:03.039Z,7.22
2019-01-17T08:27:03.551Z,6.72
2019-01-17T08:28:02.638Z,6.95
2019-01-17T08:29:02.884Z,7.25
2019-01-17T08:30:02.960Z,7.5
2019-01-17T08:31:03.601Z,6.56
2019-01-17T08:32:03.136Z,6.84
2019-01-17T08:33:03.432Z,7.49
2019-01-17T08:34:02.907Z,7.21
2019-01-17T08:35:03.451Z,7.78
2019-01-17T08:36:03.458Z,6.38
2019-01-17T08:37:03.366Z,6.74
2019-01-17T08:38:03.455Z,7.23
2019-01-17T08:39:02.992Z,6.12
2019-01-17T08:40:03.673Z,7.29
2019-01-17T08:41:03.238Z,7.89
2019-01-17T08:42:03.577Z,6.53
2019-01-17T08:43:02.764Z,6.56
2019-01-17T08:44:03.115Z,6.9
2019-01-17T08:45:03.045Z,6.96
2019-01-17T08:46:03.378Z,6.94
2019-01-17T08:47:03.000Z,6.91
2019-01-17T08:48:02.967Z,6.71
2019-01-17T08:49:03.545Z,6.44
2019-01-17T08:50:02.880Z,6.91
2019-01-17T08:51:03.462Z,7.43
2019-01-17T08:52:03.016Z,6.34
2019-01-17T08:53:03.639Z,6.79
2019-01-17T08:54:03.642Z,6.88
2019-01-17T08:55:02.808Z,6.96
2019-01-17T08:56:02.791Z,6.96
2019-01-17T08:57:03.211Z,6.26
2019-01-17T08:58:02.740Z,6.21
2019-01-17T08:59:03.095Z,6.21
2019-01-17T09:00:03.515Z,5.91
2019-01-17T09:01:02.834Z,7.17
2019-01-17T09:02:02.882Z,6.95
2019-01-17T09:03:03.273Z,6.36
2019-01-17T09:04:03.441Z,7.32
2019-01-17T09:05:03.194Z,7.34
2019-01-17T09:06:02.857Z,7.79
2019-01-17T09:07:02.902Z,7.96
2019-01-17T09:08:02.867Z,7.12
2019-01-17T09:09:03.641Z,6.76
2019-01-17T09:10:02.805Z,6.84
2019-01-17T09:11:03.365Z,7.28
2019-01-17T09:12:03.529Z,7.33
2019-01-17T09:13:02.823Z,6.53
2019-01-17T09:14:03.627Z,7.33
2019-01-17T09:15:03.381Z,7.16
2019-01-17T09:16:03.336Z,6.86
2019-01-17T09:17:03.630Z,6.87
2019-01-17T09:18:03.312Z,6.2
2019-01-17T09:19:02.881Z,7.05
2019-01-17T09:20:03.169Z,6.64
2019-01-17T09:21:03.754Z,6.42
2019-01-17T09:22:03.112Z,5.94
2019-01-17T09:23:03.481Z,6.52
2019-01-17T09:24:03.562Z,6.72
2019-01-17T09:25:02.988Z,6.59
2019-01-17T09:26:07.853Z,6.34
2019-01-17T09:27:02.694Z,5.8
2019-01-17T09:28:03.080Z,6.21
2019-01-17T09:29:02.836Z,6.44
2019-01-17T09:30:03.564Z,6.01
2019-01-17T09:31:03.053Z,6.01
2019-01-17T09:32:03.239Z,5.46
2019-01-17T09:33:02.907Z,6.19
2019-01-17T09:34:03.088Z,6.56
2019-01-17T09:35:02.907Z,6.25
2019-01-17T09:36:03.420Z,6.83
2019-01-17T09:37:02.697Z,5.84
2019-01-17T09:38:03.040Z,6.2
2019-01-17T09:39:02.814Z,6.88
2019-01-17T09:40:02.982Z,6.61
2019-01-17T09:41:03.495Z,6.41
2019-01-17T09:42:03.422Z,6.71
2019-01-17T09:43:02.884Z,6.74
2019-01-17T09:44:03.092Z,6.81
2019-01-17T09:45:02.939Z,6.87
2019-01-17T09:46:02.757Z,6.87
2019-01-17T09:47:02.994Z,6.91
2019-01-17T09:48:02.789Z,6.91
2019-01-17T09:49:03.598Z,6.81
2019-01-17T09:50:03.488Z,6.91
2019-01-17T09:51:03.331Z,6.91
2019-01-17T09:52:03.206Z,6.59
2019-01-17T09:53:03.420Z,7.04
2019-01-17T09:54:02.790Z,6.62
2019-01-17T09:55:03.320Z,7.43
2019-01-17T09:56:02.883Z,7.56
2019-01-17T09:57:03.050Z,6.62
2019-01-17T09:58:03.540Z,7.45
2019-01-17T09:59:03.162Z,6.82
2019-01-17T10:00:03.586Z,6.69
2019-01-17T10:01:02.713Z,6.86
2019-01-17T10:02:02.682Z,7.45
2019-01-17T10:03:03.468Z,7.21
2019-01-17T10:04:02.974Z,7.11
2019-01-17T10:05:03.015Z,7.62
2019-01-17T10:06:02.843Z,7.8
2019-01-17T10:07:03.449Z,7.12
2019-01-17T10:08:02.729Z,7.22
2019-01-17T10:09:03.434Z,6.45
2019-01-17T10:10:03.744Z,6.51
2019-01-17T10:11:03.634Z,6.34
2019-01-17T10:12:02.757Z,6.31
2019-01-17T10:13:03.544Z,5.98
2019-01-17T10:14:02.872Z,5.79
2019-01-17T10:15:03.219Z,5.86
2019-01-17T10:16:03.629Z,6.19
2019-01-17T10:17:02.720Z,5.58
2019-01-17T10:18:03.050Z,5.39
2019-01-17T10:19:03.079Z,5.25
2019-01-17T10:20:03.512Z,5.02
2019-01-17T10:21:02.974Z,5.42
2019-01-17T10:22:02.865Z,5.08
2019-01-17T10:23:03.389Z,5.18
2019-01-17T10:24:02.834Z,4.85
2019-01-17T10:25:03.369Z,5.12
2019-01-17T10:26:03.645Z,5.26
2019-01-17T10:27:03.667Z,4.79
2019-01-17T10:28:02.957Z,4.82
2019-01-17T10:29:03.252Z,4.79
2019-01-17T10:30:02.965Z,4.51
2019-01-17T10:31:03.175Z,4.96
2019-01-17T10:32:03.291Z,4.85
2019-01-17T10:33:03.577Z,4.9
2019-01-17T10:34:02.651Z,5.37
2019-01-17T10:35:03.591Z,5.03
2019-01-17T10:36:02.679Z,5.29
2019-01-17T10:37:02.896Z,5.29
2019-01-17T10:38:03.385Z,4.97
2019-01-17T10:39:02.744Z,4.97
2019-01-17T10:40:03.685Z,4.85
2019-01-17T10:41:03.398Z,4.82
2019-01-17T10:42:03.505Z,5.35
2019-01-17T10:43:03.239Z,4.77
2019-01-17T10:44:03.218Z,5.96
2019-01-17T10:45:02.721Z,5.02
2019-01-17T10:46:03.620Z,4.81
2019-01-17T10:47:02.914Z,5.13
2019-01-17T10:48:02.787Z,5.91
2019-01-17T10:49:03.635Z,5.04
2019-01-17T10:50:02.978Z,5.08
2019-01-17T10:51:03.476Z,5.51
2019-01-17T10:52:03.388Z,5.11
2019-01-17T10:53:02.801Z,5.36
2019-01-17T10:54:03.146Z,6.26
2019-01-17T10:55:03.614Z,5.99
2019-01-17T10:56:03.269Z,5.1
2019-01-17T10:57:03.111Z,6.23
2019-01-17T10:58:03.014Z,6.76
2019-01-17T10:59:03.079Z,5.75
2019-01-17T11:00:03.205Z,5.76
2019-01-17T11:01:03.169Z,5.62
2019-01-17T11:02:02.765Z,5.58
2019-01-17T11:03:03.675Z,6.49
2019-01-17T11:04:03.673Z,6.13
2019-01-17T11:05:03.669Z,6.38
2019-01-17T11:06:03.610Z,6.35
2019-01-17T11:07:03.450Z,7.08
2019-01-17T11:08:03.567Z,6.28
2019-01-17T11:09:02.992Z,6.21
2019-01-17T11:10:03.291Z,5.83
2019-01-17T11:11:03.060Z,6.22
2019-01-17T11:12:02.754Z,6.18
2019-01-17T11:13:02.983Z,6.15
2019-01-17T11:14:02.810Z,5.87
2019-01-17T11:15:03.088Z,6.72
2019-01-17T11:16:03.544Z,5.79
2019-01-17T11:17:03.403Z,4.99
2019-01-17T11:18:03.450Z,6.3
2019-01-17T11:19:02.444Z,5.35
2019-01-17T11:20:02.820Z,5.26
2019-01-17T11:21:03.115Z,5.81
2019-01-17T11:22:02.911Z,5.27
2019-01-17T11:23:03.377Z,5.29
2019-01-17T11:24:03.502Z,6.85
2019-01-17T11:25:02.926Z,6.85
2019-01-17T11:26:03.011Z,5.48
2019-01-17T11:27:03.551Z,4.72
2019-01-17T11:28:02.975Z,4.72
2019-01-17T11:29:02.691Z,6.04
2019-01-17T11:30:03.207Z,5.68
2019-01-17T11:31:02.563Z,5.33
2019-01-17T11:32:03.261Z,5.79
2019-01-17T11:33:03.319Z,6.13
2019-01-17T11:34:02.928Z,5.96
2019-01-17T11:35:02.878Z,5.61
2019-01-17T11:36:02.870Z,5.78
2019-01-17T11:37:02.578Z,6.09
2019-01-17T11:38:03.205Z,5.68
2019-01-17T11:39:02.855Z,5.47
2019-01-17T11:40:03.181Z,6.18
2019-01-17T11:41:02.943Z,6.58
2019-01-17T11:42:02.785Z,6.68
2019-01-17T11:43:02.904Z,6.52
2019-01-17T11:44:03.192Z,5.41
2019-01-17T11:45:03.120Z,3.81
2019-01-17T11:46:03.467Z,4.52
2019-01-17T11:47:03.514Z,3.86
2019-01-17T11:48:03.541Z,4.08
2019-01-17T11:49:02.875Z,3.81
2019-01-17T11:50:03.169Z,3.48
2019-01-17T11:51:02.928Z,3.54
2019-01-17T11:52:02.994Z,5.16
2019-01-17T11:53:03.318Z,4.59
2019-01-17T11:54:03.527Z,4.19
2019-01-17T11:55:02.845Z,3.87
2019-01-17T11:56:03.213Z,4.49
2019-01-17T11:57:03.606Z,3.9
2019-01-17T11:58:02.952Z,4.08
2019-01-17T11:59:02.793Z,3.77
2019-01-17T12:00:02.696Z,3.8
2019-01-17T12:01:02.946Z,4.49
2019-01-17T12:02:03.358Z,3.61
2019-01-17T12:03:03.167Z,3.98
2019-01-17T12:04:03.255Z,4.22
2019-01-17T12:05:03.053Z,3.84
2019-01-17T12:06:03.319Z,3.28
2019-01-17T12:07:02.877Z,3.61
2019-01-17T12:08:03.446Z,3.64
2019-01-17T12:09:03.005Z,3.81
2019-01-17T12:10:03.575Z,3.46
2019-01-17T12:11:03.169Z,3.72
2019-01-17T12:12:03.271Z,3.14
2019-01-17T12:13:02.684Z,3.38
2019-01-17T12:14:02.737Z,3.62
2019-01-17T12:15:03.637Z,3.95
2019-01-17T12:16:02.732Z,3.95
2019-01-17T12:17:03.296Z,3.56
2019-01-17T12:18:02.791Z,3.52
2019-01-17T12:19:03.121Z,3.46
2019-01-17T12:20:03.442Z,3.98
2019-01-17T12:21:03.497Z,3.76
2019-01-17T12:22:02.651Z,4.51
2019-01-17T12:23:02.902Z,3.28
2019-01-17T12:24:02.921Z,3.42
2019-01-17T12:25:03.196Z,3.45
2019-01-17T12:26:03.711Z,3.49
2019-01-17T12:27:02.764Z,3.94
2019-01-17T12:28:02.753Z,3.58
2019-01-17T12:29:03.374Z,2.85
2019-01-17T12:30:02.843Z,4.05
2019-01-17T12:31:03.531Z,3.5
2019-01-17T12:32:03.442Z,3.08
2019-01-17T12:33:03.608Z,3.35
2019-01-17T12:34:03.125Z,6.27
2019-01-17T12:35:02.945Z,4.19
2019-01-17T12:36:03.498Z,3.39
2019-01-17T12:37:03.457Z,3.44
2019-01-17T12:38:03.587Z,3.98
2019-01-17T12:39:02.710Z,4.02
2019-01-17T12:40:02.779Z,3.61
2019-01-17T12:41:02.815Z,3.69
2019-01-17T12:42:02.904Z,3.91
2019-01-17T12:43:03.439Z,3.7
2019-01-17T12:44:03.372Z,3.54
2019-01-17T12:45:03.527Z,3.38
2019-01-17T12:46:03.129Z,3.63
2019-01-17T12:47:03.438Z,3.81
2019-01-17T12:48:03.200Z,3.37
2019-01-17T12:49:02.633Z,3.82
2019-01-17T12:50:02.936Z,3.68
2019-01-17T12:51:02.783Z,3.6
2019-01-17T12:52:02.975Z,3.66
2019-01-17T12:53:02.911Z,3.79
2019-01-17T12:54:03.073Z,3.55
2019-01-17T12:55:03.674Z,3.54
2019-01-17T12:56:03.275Z,3.64
2019-01-17T12:57:02.883Z,4.79
2019-01-17T12:58:03.043Z,3.61
2019-01-17T12:59:02.988Z,3.77
2019-01-17T13:00:07.921Z,3.77
2019-01-17T13:01:02.665Z,4.05
2019-01-17T13:02:03.015Z,3.71
2019-01-17T13:03:02.682Z,3.62
2019-01-17T13:04:03.450Z,3.22
2019-01-17T13:05:02.648Z,3.22
2019-01-17T13:06:02.866Z,3.57
2019-01-17T13:07:02.903Z,3.29
2019-01-17T13:08:03.032Z,3.29
2019-01-17T13:09:02.852Z,3.55
2019-01-17T13:10:03.166Z,3.65
2019-01-17T13:11:03.551Z,4.01
2019-01-17T13:12:02.845Z,3.48
2019-01-17T13:13:03.404Z,3.77
2019-01-17T13:14:03.546Z,3.42
2019-01-17T13:15:03.176Z,3.68
2019-01-17T13:16:03.264Z,3.39
2019-01-17T13:17:03.286Z,3.78
2019-01-17T13:18:03.329Z,3.72